sensor_id;sensor_type;location;lat;lon;timestamp;temperature;humidity
52799;DHT22;38667;42.872;74.622;2023-10-31T00:01:54;16.30;53.70
52799;DHT22;38667;42.872;74.622;2023-10-31T00:04:20;16.20;54.20
52799;DHT22;38667;42.872;74.622;2023-10-31T00:06:46;16.20;54.90
52799;DHT22;38667;42.872;74.622;2023-10-31T00:09:13;16.10;54.50
52799;DHT22;38667;42.872;74.622;2023-10-31T00:11:41;16.10;55.00
52799;DHT22;38667;42.872;74.622;2023-10-31T00:14:07;16.10;54.50
52799;DHT22;38667;42.872;74.622;2023-10-31T00:16:34;16.10;54.50
52799;DHT22;38667;42.872;74.622;2023-10-31T00:19:00;16.10;54.30
52799;DHT22;38667;42.872;74.622;2023-10-31T00:21:26;16.10;54.20
52799;DHT22;38667;42.872;74.622;2023-10-31T00:23:53;16.10;54.50
52799;DHT22;38667;42.872;74.622;2023-10-31T00:26:19;16.10;54.50
52799;DHT22;38667;42.872;74.622;2023-10-31T00:28:47;16.10;54.60
52799;DHT22;38667;42.872;74.622;2023-10-31T00:31:13;16.00;54.20
52799;DHT22;38667;42.872;74.622;2023-10-31T00:33:39;16.10;54.20
52799;DHT22;38667;42.872;74.622;2023-10-31T00:36:06;16.10;54.00
52799;DHT22;38667;42.872;74.622;2023-10-31T00:38:32;16.10;54.20
52799;DHT22;38667;42.872;74.622;2023-10-31T00:40:59;16.10;53.90
52799;DHT22;38667;42.872;74.622;2023-10-31T00:43:25;16.10;54.00
52799;DHT22;38667;42.872;74.622;2023-10-31T00:45:53;16.20;53.60
52799;DHT22;38667;42.872;74.622;2023-10-31T00:48:19;16.20;53.60
52799;DHT22;38667;42.872;74.622;2023-10-31T00:50:45;16.20;53.50
52799;DHT22;38667;42.872;74.622;2023-10-31T00:53:12;16.20;54.00
52799;DHT22;38667;42.872;74.622;2023-10-31T00:55:38;16.20;53.60
52799;DHT22;38667;42.872;74.622;2023-10-31T00:58:04;16.20;53.50
52799;DHT22;38667;42.872;74.622;2023-10-31T01:00:30;16.20;53.50
52799;DHT22;38667;42.872;74.622;2023-10-31T01:02:58;16.20;53.40
52799;DHT22;38667;42.872;74.622;2023-10-31T01:05:25;16.20;53.60
52799;DHT22;38667;42.872;74.622;2023-10-31T01:07:51;16.10;53.80
52799;DHT22;38667;42.872;74.622;2023-10-31T01:10:17;16.10;54.00
52799;DHT22;38667;42.872;74.622;2023-10-31T01:12:44;16.10;54.20
52799;DHT22;38667;42.872;74.622;2023-10-31T01:15:10;16.00;54.30
52799;DHT22;38667;42.872;74.622;2023-10-31T01:17:36;16.00;54.40
52799;DHT22;38667;42.872;74.622;2023-10-31T01:20:05;16.00;54.60
52799;DHT22;38667;42.872;74.622;2023-10-31T01:22:32;16.00;54.60
52799;DHT22;38667;42.872;74.622;2023-10-31T01:24:58;15.90;54.90
52799;DHT22;38667;42.872;74.622;2023-10-31T01:27:24;15.90;55.20
52799;DHT22;38667;42.872;74.622;2023-10-31T01:29:51;15.80;55.70
52799;DHT22;38667;42.872;74.622;2023-10-31T01:32:17;15.80;56.00
52799;DHT22;38667;42.872;74.622;2023-10-31T01:34:43;15.70;56.30
52799;DHT22;38667;42.872;74.622;2023-10-31T01:37:11;15.70;57.00
52799;DHT22;38667;42.872;74.622;2023-10-31T01:39:37;15.60;58.00
52799;DHT22;38667;42.872;74.622;2023-10-31T01:42:04;15.40;58.90
52799;DHT22;38667;42.872;74.622;2023-10-31T01:44:30;15.40;59.60
52799;DHT22;38667;42.872;74.622;2023-10-31T01:46:56;15.30;60.50
52799;DHT22;38667;42.872;74.622;2023-10-31T01:49:23;15.10;60.80
52799;DHT22;38667;42.872;74.622;2023-10-31T01:51:49;15.00;61.40
52799;DHT22;38667;42.872;74.622;2023-10-31T01:54:17;15.00;62.40
52799;DHT22;38667;42.872;74.622;2023-10-31T01:56:44;14.80;63.30
52799;DHT22;38667;42.872;74.622;2023-10-31T01:59:10;14.80;63.70
52799;DHT22;38667;42.872;74.622;2023-10-31T02:01:38;14.80;64.30
52799;DHT22;38667;42.872;74.622;2023-10-31T02:04:05;14.70;64.90
52799;DHT22;38667;42.872;74.622;2023-10-31T02:06:31;14.70;65.60
52799;DHT22;38667;42.872;74.622;2023-10-31T02:08:57;14.60;66.30
52799;DHT22;38667;42.872;74.622;2023-10-31T02:11:25;14.50;67.50
52799;DHT22;38667;42.872;74.622;2023-10-31T02:13:52;14.30;68.40
52799;DHT22;38667;42.872;74.622;2023-10-31T02:16:18;14.30;68.80
52799;DHT22;38667;42.872;74.622;2023-10-31T02:18:44;14.30;69.60
52799;DHT22;38667;42.872;74.622;2023-10-31T02:21:11;14.10;70.20
52799;DHT22;38667;42.872;74.622;2023-10-31T02:23:38;13.90;71.30
52799;DHT22;38667;42.872;74.622;2023-10-31T02:26:05;13.40;70.40
52799;DHT22;38667;42.872;74.622;2023-10-31T02:28:31;13.10;72.50
52799;DHT22;38667;42.872;74.622;2023-10-31T02:30:57;12.90;72.60
52799;DHT22;38667;42.872;74.622;2023-10-31T02:33:23;12.30;72.70
52799;DHT22;38667;42.872;74.622;2023-10-31T02:35:50;11.90;73.80
52799;DHT22;38667;42.872;74.622;2023-10-31T02:38:16;11.50;75.70
52799;DHT22;38667;42.872;74.622;2023-10-31T02:40:44;11.20;76.90
52799;DHT22;38667;42.872;74.622;2023-10-31T02:43:10;11.00;78.10
52799;DHT22;38667;42.872;74.622;2023-10-31T02:45:36;10.90;78.80
52799;DHT22;38667;42.872;74.622;2023-10-31T02:48:03;10.70;79.70
52799;DHT22;38667;42.872;74.622;2023-10-31T02:50:29;10.60;81.20
52799;DHT22;38667;42.872;74.622;2023-10-31T02:52:55;10.60;82.60
52799;DHT22;38667;42.872;74.622;2023-10-31T02:55:22;10.50;82.70
52799;DHT22;38667;42.872;74.622;2023-10-31T02:57:49;10.60;82.60
52799;DHT22;38667;42.872;74.622;2023-10-31T03:00:16;10.50;83.70
52799;DHT22;38667;42.872;74.622;2023-10-31T03:02:43;10.40;84.30
52799;DHT22;38667;42.872;74.622;2023-10-31T03:05:09;10.40;85.60
52799;DHT22;38667;42.872;74.622;2023-10-31T03:07:35;10.30;86.80
52799;DHT22;38667;42.872;74.622;2023-10-31T03:10:02;10.20;87.80
52799;DHT22;38667;42.872;74.622;2023-10-31T03:12:28;10.10;89.00
52799;DHT22;38667;42.872;74.622;2023-10-31T03:14:56;10.10;89.40
52799;DHT22;38667;42.872;74.622;2023-10-31T03:17:22;9.90;90.00
52799;DHT22;38667;42.872;74.622;2023-10-31T03:19:48;9.90;91.40
52799;DHT22;38667;42.872;74.622;2023-10-31T03:22:15;9.90;92.50
52799;DHT22;38667;42.872;74.622;2023-10-31T03:24:41;9.80;93.20
52799;DHT22;38667;42.872;74.622;2023-10-31T03:27:07;9.70;94.60
52799;DHT22;38667;42.872;74.622;2023-10-31T03:29:33;9.80;95.30
52799;DHT22;38667;42.872;74.622;2023-10-31T03:32:01;9.70;94.20
52799;DHT22;38667;42.872;74.622;2023-10-31T03:34:27;9.70;95.30
52799;DHT22;38667;42.872;74.622;2023-10-31T03:36:54;9.60;94.90
52799;DHT22;38667;42.872;74.622;2023-10-31T03:39:20;9.60;95.70
52799;DHT22;38667;42.872;74.622;2023-10-31T03:41:46;9.50;95.80
52799;DHT22;38667;42.872;74.622;2023-10-31T03:44:12;9.40;95.80
52799;DHT22;38667;42.872;74.622;2023-10-31T03:46:39;9.40;97.50
52799;DHT22;38667;42.872;74.622;2023-10-31T03:49:07;9.40;97.80
52799;DHT22;38667;42.872;74.622;2023-10-31T03:51:33;9.40;99.20
52799;DHT22;38667;42.872;74.622;2023-10-31T03:53:59;9.50;99.60
52799;DHT22;38667;42.872;74.622;2023-10-31T03:56:25;9.50;98.30
52799;DHT22;38667;42.872;74.622;2023-10-31T03:58:52;9.60;98.50
52799;DHT22;38667;42.872;74.622;2023-10-31T04:01:18;9.60;96.60
52799;DHT22;38667;42.872;74.622;2023-10-31T04:03:44;9.50;96.60
52799;DHT22;38667;42.872;74.622;2023-10-31T04:06:12;9.50;95.90
52799;DHT22;38667;42.872;74.622;2023-10-31T04:08:38;9.50;96.50
52799;DHT22;38667;42.872;74.622;2023-10-31T04:11:05;9.40;97.20
52799;DHT22;38667;42.872;74.622;2023-10-31T04:13:32;9.50;97.70
52799;DHT22;38667;42.872;74.622;2023-10-31T04:15:58;9.40;98.50
52799;DHT22;38667;42.872;74.622;2023-10-31T04:18:24;9.40;97.80
52799;DHT22;38667;42.872;74.622;2023-10-31T04:20:50;9.30;97.40
52799;DHT22;38667;42.872;74.622;2023-10-31T04:23:18;9.30;98.30
52799;DHT22;38667;42.872;74.622;2023-10-31T04:25:44;9.30;98.80
52799;DHT22;38667;42.872;74.622;2023-10-31T04:28:11;9.40;98.10
52799;DHT22;38667;42.872;74.622;2023-10-31T04:30:37;9.30;98.60
52799;DHT22;38667;42.872;74.622;2023-10-31T04:33:03;9.30;96.90
52799;DHT22;38667;42.872;74.622;2023-10-31T04:35:29;9.30;97.00
52799;DHT22;38667;42.872;74.622;2023-10-31T04:37:56;9.30;96.60
52799;DHT22;38667;42.872;74.622;2023-10-31T04:40:23;9.30;96.70
52799;DHT22;38667;42.872;74.622;2023-10-31T04:42:50;9.20;96.50
52799;DHT22;38667;42.872;74.622;2023-10-31T04:45:16;9.20;97.40
52799;DHT22;38667;42.872;74.622;2023-10-31T04:47:42;9.20;97.20
52799;DHT22;38667;42.872;74.622;2023-10-31T04:50:09;9.20;97.10
52799;DHT22;38667;42.872;74.622;2023-10-31T04:52:35;9.20;97.70
52799;DHT22;38667;42.872;74.622;2023-10-31T04:55:01;9.20;97.60
52799;DHT22;38667;42.872;74.622;2023-10-31T04:57:29;9.20;98.70
52799;DHT22;38667;42.872;74.622;2023-10-31T04:59:55;9.20;99.80
52799;DHT22;38667;42.872;74.622;2023-10-31T05:02:22;9.20;99.90
52799;DHT22;38667;42.872;74.622;2023-10-31T05:04:48;9.20;99.90
52799;DHT22;38667;42.872;74.622;2023-10-31T05:07:14;9.20;99.90
52799;DHT22;38667;42.872;74.622;2023-10-31T05:09:41;9.20;99.90
52799;DHT22;38667;42.872;74.622;2023-10-31T05:12:08;9.30;99.90
52799;DHT22;38667;42.872;74.622;2023-10-31T05:14:35;9.30;99.90
52799;DHT22;38667;42.872;74.622;2023-10-31T05:17:02;9.30;99.90
52799;DHT22;38667;42.872;74.622;2023-10-31T05:19:29;9.30;99.90
52799;DHT22;38667;42.872;74.622;2023-10-31T05:21:56;9.10;99.90
52799;DHT22;38667;42.872;74.622;2023-10-31T05:24:22;9.20;99.90
52799;DHT22;38667;42.872;74.622;2023-10-31T05:26:48;9.20;99.90
52799;DHT22;38667;42.872;74.622;2023-10-31T05:29:14;9.10;99.90
52799;DHT22;38667;42.872;74.622;2023-10-31T05:31:42;9.00;99.90
52799;DHT22;38667;42.872;74.622;2023-10-31T05:34:09;9.00;99.90
52799;DHT22;38667;42.872;74.622;2023-10-31T05:36:35;9.00;99.90
52799;DHT22;38667;42.872;74.622;2023-10-31T05:39:01;8.90;99.90
52799;DHT22;38667;42.872;74.622;2023-10-31T05:41:28;9.00;99.90
52799;DHT22;38667;42.872;74.622;2023-10-31T05:43:54;9.00;99.90
52799;DHT22;38667;42.872;74.622;2023-10-31T05:46:20;9.00;99.90
52799;DHT22;38667;42.872;74.622;2023-10-31T05:48:48;8.90;99.90
52799;DHT22;38667;42.872;74.622;2023-10-31T05:51:15;8.90;99.90
52799;DHT22;38667;42.872;74.622;2023-10-31T05:53:43;8.90;99.90
52799;DHT22;38667;42.872;74.622;2023-10-31T05:56:10;8.90;99.90
52799;DHT22;38667;42.872;74.622;2023-10-31T05:58:37;9.00;99.90
52799;DHT22;38667;42.872;74.622;2023-10-31T06:01:04;8.90;99.90
52799;DHT22;38667;42.872;74.622;2023-10-31T06:03:31;9.00;99.90
52799;DHT22;38667;42.872;74.622;2023-10-31T06:05:59;9.00;99.90
52799;DHT22;38667;42.872;74.622;2023-10-31T06:08:25;9.00;99.90
52799;DHT22;38667;42.872;74.622;2023-10-31T06:10:51;9.00;99.90
52799;DHT22;38667;42.872;74.622;2023-10-31T06:13:18;9.10;99.90
52799;DHT22;38667;42.872;74.622;2023-10-31T06:15:44;9.00;99.90
52799;DHT22;38667;42.872;74.622;2023-10-31T06:18:10;9.00;99.90
52799;DHT22;38667;42.872;74.622;2023-10-31T06:20:37;9.00;99.90
52799;DHT22;38667;42.872;74.622;2023-10-31T06:23:04;9.00;99.90
52799;DHT22;38667;42.872;74.622;2023-10-31T06:25:31;9.00;99.90
52799;DHT22;38667;42.872;74.622;2023-10-31T06:27:57;9.10;99.90
52799;DHT22;38667;42.872;74.622;2023-10-31T06:30:23;9.10;99.90
52799;DHT22;38667;42.872;74.622;2023-10-31T06:32:49;9.10;99.90
52799;DHT22;38667;42.872;74.622;2023-10-31T06:35:16;9.10;99.90
52799;DHT22;38667;42.872;74.622;2023-10-31T06:37:42;9.10;99.90
52799;DHT22;38667;42.872;74.622;2023-10-31T06:40:11;9.10;99.90
52799;DHT22;38667;42.872;74.622;2023-10-31T06:42:37;9.10;98.90
52799;DHT22;38667;42.872;74.622;2023-10-31T06:45:04;9.20;98.40
52799;DHT22;38667;42.872;74.622;2023-10-31T06:47:30;9.20;97.70
52799;DHT22;38667;42.872;74.622;2023-10-31T06:49:56;9.10;96.20
52799;DHT22;38667;42.872;74.622;2023-10-31T06:52:23;9.20;97.40
52799;DHT22;38667;42.872;74.622;2023-10-31T06:54:49;9.20;97.90
52799;DHT22;38667;42.872;74.622;2023-10-31T06:57:17;9.20;98.20
52799;DHT22;38667;42.872;74.622;2023-10-31T06:59:43;9.30;98.40
52799;DHT22;38667;42.872;74.622;2023-10-31T07:02:09;9.30;97.80
52799;DHT22;38667;42.872;74.622;2023-10-31T07:04:36;9.40;97.10
52799;DHT22;38667;42.872;74.622;2023-10-31T07:07:02;9.40;96.90
52799;DHT22;38667;42.872;74.622;2023-10-31T07:09:28;9.40;95.30
52799;DHT22;38667;42.872;74.622;2023-10-31T07:11:55;9.40;94.90
52799;DHT22;38667;42.872;74.622;2023-10-31T07:14:23;9.40;95.40
52799;DHT22;38667;42.872;74.622;2023-10-31T07:16:49;9.40;95.50
52799;DHT22;38667;42.872;74.622;2023-10-31T07:19:15;9.40;96.00
52799;DHT22;38667;42.872;74.622;2023-10-31T07:21:41;9.30;95.10
52799;DHT22;38667;42.872;74.622;2023-10-31T07:24:08;9.30;95.60
52799;DHT22;38667;42.872;74.622;2023-10-31T07:26:35;9.20;96.30
52799;DHT22;38667;42.872;74.622;2023-10-31T07:29:01;9.10;96.50
52799;DHT22;38667;42.872;74.622;2023-10-31T07:31:29;9.10;97.10
52799;DHT22;38667;42.872;74.622;2023-10-31T07:33:55;9.00;97.60
52799;DHT22;38667;42.872;74.622;2023-10-31T07:36:21;9.00;96.40
52799;DHT22;38667;42.872;74.622;2023-10-31T07:38:48;9.00;96.40
52799;DHT22;38667;42.872;74.622;2023-10-31T07:41:15;9.00;97.90
52799;DHT22;38667;42.872;74.622;2023-10-31T07:43:41;9.00;98.80
52799;DHT22;38667;42.872;74.622;2023-10-31T07:46:07;9.10;98.50
52799;DHT22;38667;42.872;74.622;2023-10-31T07:48:35;9.10;97.80
52799;DHT22;38667;42.872;74.622;2023-10-31T07:51:01;9.10;97.80
52799;DHT22;38667;42.872;74.622;2023-10-31T07:53:28;9.20;98.40
52799;DHT22;38667;42.872;74.622;2023-10-31T07:55:54;9.30;98.70
52799;DHT22;38667;42.872;74.622;2023-10-31T07:58:20;9.30;98.30
52799;DHT22;38667;42.872;74.622;2023-10-31T08:00:47;9.30;95.10
52799;DHT22;38667;42.872;74.622;2023-10-31T08:03:13;9.30;94.50
52799;DHT22;38667;42.872;74.622;2023-10-31T08:05:40;9.40;93.30
52799;DHT22;38667;42.872;74.622;2023-10-31T08:08:07;9.50;94.00
52799;DHT22;38667;42.872;74.622;2023-10-31T08:10:33;9.60;94.90
52799;DHT22;38667;42.872;74.622;2023-10-31T08:12:59;9.60;93.00
52799;DHT22;38667;42.872;74.622;2023-10-31T08:15:25;9.60;92.10
52799;DHT22;38667;42.872;74.622;2023-10-31T08:17:52;9.60;90.80
52799;DHT22;38667;42.872;74.622;2023-10-31T08:20:18;9.70;92.70
52799;DHT22;38667;42.872;74.622;2023-10-31T08:22:46;9.70;92.20
52799;DHT22;38667;42.872;74.622;2023-10-31T08:25:12;9.70;92.20
52799;DHT22;38667;42.872;74.622;2023-10-31T08:27:38;9.70;90.90
52799;DHT22;38667;42.872;74.622;2023-10-31T08:30:06;9.80;92.00
52799;DHT22;38667;42.872;74.622;2023-10-31T08:32:32;9.80;92.50
52799;DHT22;38667;42.872;74.622;2023-10-31T08:34:59;9.80;91.90
52799;DHT22;38667;42.872;74.622;2023-10-31T08:37:25;9.90;90.90
52799;DHT22;38667;42.872;74.622;2023-10-31T08:39:53;9.90;92.70
52799;DHT22;38667;42.872;74.622;2023-10-31T08:42:19;9.90;93.30
52799;DHT22;38667;42.872;74.622;2023-10-31T08:44:45;10.00;91.20
52799;DHT22;38667;42.872;74.622;2023-10-31T08:47:11;10.00;90.90
52799;DHT22;38667;42.872;74.622;2023-10-31T08:49:38;10.00;91.60
52799;DHT22;38667;42.872;74.622;2023-10-31T08:52:04;10.10;92.70
52799;DHT22;38667;42.872;74.622;2023-10-31T08:54:30;10.10;94.60
52799;DHT22;38667;42.872;74.622;2023-10-31T08:56:58;10.10;94.80
52799;DHT22;38667;42.872;74.622;2023-10-31T08:59:25;10.10;93.60
52799;DHT22;38667;42.872;74.622;2023-10-31T09:01:51;10.10;87.70
52799;DHT22;38667;42.872;74.622;2023-10-31T09:04:17;10.20;86.30
52799;DHT22;38667;42.872;74.622;2023-10-31T09:06:44;10.20;87.90
52799;DHT22;38667;42.872;74.622;2023-10-31T09:09:10;10.20;90.20
52799;DHT22;38667;42.872;74.622;2023-10-31T09:11:36;10.20;90.80
52799;DHT22;38667;42.872;74.622;2023-10-31T09:14:04;10.20;91.50
52799;DHT22;38667;42.872;74.622;2023-10-31T09:16:30;10.30;91.70
52799;DHT22;38667;42.872;74.622;2023-10-31T09:18:56;10.30;92.10
52799;DHT22;38667;42.872;74.622;2023-10-31T09:21:23;10.30;92.20
52799;DHT22;38667;42.872;74.622;2023-10-31T09:23:49;10.30;92.00
52799;DHT22;38667;42.872;74.622;2023-10-31T09:26:15;10.30;92.30
52799;DHT22;38667;42.872;74.622;2023-10-31T09:28:42;10.40;92.00
52799;DHT22;38667;42.872;74.622;2023-10-31T09:31:09;10.40;93.70
52799;DHT22;38667;42.872;74.622;2023-10-31T09:33:36;10.40;92.30
52799;DHT22;38667;42.872;74.622;2023-10-31T09:36:02;10.40;89.60
52799;DHT22;38667;42.872;74.622;2023-10-31T09:38:29;10.50;88.40
52799;DHT22;38667;42.872;74.622;2023-10-31T09:40:55;10.50;87.40
52799;DHT22;38667;42.872;74.622;2023-10-31T09:43:21;10.60;87.20
52799;DHT22;38667;42.872;74.622;2023-10-31T09:45:48;10.70;86.60
52799;DHT22;38667;42.872;74.622;2023-10-31T09:48:16;10.80;86.10
52799;DHT22;38667;42.872;74.622;2023-10-31T09:50:43;10.80;85.40
52799;DHT22;38667;42.872;74.622;2023-10-31T09:53:10;10.80;83.10
52799;DHT22;38667;42.872;74.622;2023-10-31T09:55:37;10.90;83.10
52799;DHT22;38667;42.872;74.622;2023-10-31T09:58:04;10.90;83.30
52799;DHT22;38667;42.872;74.622;2023-10-31T10:00:31;11.00;83.90
52799;DHT22;38667;42.872;74.622;2023-10-31T10:02:57;10.90;86.50
52799;DHT22;38667;42.872;74.622;2023-10-31T10:05:25;10.90;85.80
52799;DHT22;38667;42.872;74.622;2023-10-31T10:07:55;11.00;85.70
52799;DHT22;38667;42.872;74.622;2023-10-31T10:10:21;11.00;85.60
52799;DHT22;38667;42.872;74.622;2023-10-31T10:12:48;11.00;83.90
52799;DHT22;38667;42.872;74.622;2023-10-31T10:15:14;10.90;82.10
52799;DHT22;38667;42.872;74.622;2023-10-31T10:17:49;11.00;84.00
52799;DHT22;38667;42.872;74.622;2023-10-31T10:20:15;11.00;85.70
52799;DHT22;38667;42.872;74.622;2023-10-31T10:22:44;11.00;83.90
52799;DHT22;38667;42.872;74.622;2023-10-31T10:25:11;10.90;82.40
52799;DHT22;38667;42.872;74.622;2023-10-31T10:27:37;11.00;81.10
52799;DHT22;38667;42.872;74.622;2023-10-31T10:30:04;11.10;81.20
52799;DHT22;38667;42.872;74.622;2023-10-31T10:32:31;11.00;84.90
52799;DHT22;38667;42.872;74.622;2023-10-31T10:34:57;11.00;85.10
52799;DHT22;38667;42.872;74.622;2023-10-31T10:37:24;10.90;86.70
52799;DHT22;38667;42.872;74.622;2023-10-31T10:39:53;10.90;84.80
52799;DHT22;38667;42.872;74.622;2023-10-31T10:42:21;11.00;85.90
52799;DHT22;38667;42.872;74.622;2023-10-31T10:44:53;11.00;85.70
52799;DHT22;38667;42.872;74.622;2023-10-31T10:47:21;11.00;85.80
52799;DHT22;38667;42.872;74.622;2023-10-31T10:49:49;11.00;85.80
52799;DHT22;38667;42.872;74.622;2023-10-31T10:52:22;11.00;83.50
52799;DHT22;38667;42.872;74.622;2023-10-31T10:54:57;11.00;83.00
52799;DHT22;38667;42.872;74.622;2023-10-31T10:57:32;11.10;83.60
52799;DHT22;38667;42.872;74.622;2023-10-31T11:00:04;11.10;83.50
52799;DHT22;38667;42.872;74.622;2023-10-31T11:02:31;11.10;83.30
52799;DHT22;38667;42.872;74.622;2023-10-31T11:04:58;11.20;84.90
52799;DHT22;38667;42.872;74.622;2023-10-31T11:07:24;11.10;87.80
52799;DHT22;38667;42.872;74.622;2023-10-31T11:09:51;11.10;89.00
52799;DHT22;38667;42.872;74.622;2023-10-31T11:12:19;11.00;90.20
52799;DHT22;38667;42.872;74.622;2023-10-31T11:14:46;11.00;91.20
52799;DHT22;38667;42.872;74.622;2023-10-31T11:17:20;11.00;92.20
52799;DHT22;38667;42.872;74.622;2023-10-31T11:19:49;10.90;92.10
52799;DHT22;38667;42.872;74.622;2023-10-31T11:22:18;10.90;93.10
52799;DHT22;38667;42.872;74.622;2023-10-31T11:24:44;10.80;93.20
52799;DHT22;38667;42.872;74.622;2023-10-31T11:27:10;10.80;93.60
52799;DHT22;38667;42.872;74.622;2023-10-31T11:29:38;10.80;93.70
52799;DHT22;38667;42.872;74.622;2023-10-31T11:32:08;10.70;93.00
52799;DHT22;38667;42.872;74.622;2023-10-31T11:34:37;10.70;93.40
52799;DHT22;38667;42.872;74.622;2023-10-31T11:37:22;10.70;94.00
52799;DHT22;38667;42.872;74.622;2023-10-31T11:40:17;10.70;94.70
52799;DHT22;38667;42.872;74.622;2023-10-31T11:42:46;10.60;94.30
52799;DHT22;38667;42.872;74.622;2023-10-31T11:45:28;10.60;94.40
52799;DHT22;38667;42.872;74.622;2023-10-31T11:47:54;10.60;94.50
52799;DHT22;38667;42.872;74.622;2023-10-31T11:50:21;10.60;95.10
52799;DHT22;38667;42.872;74.622;2023-10-31T11:53:02;10.60;95.70
52799;DHT22;38667;42.872;74.622;2023-10-31T11:55:29;10.60;96.30
52799;DHT22;38667;42.872;74.622;2023-10-31T11:57:55;10.60;95.70
52799;DHT22;38667;42.872;74.622;2023-10-31T12:00:24;10.60;95.50
52799;DHT22;38667;42.872;74.622;2023-10-31T12:03:00;10.60;95.50
52799;DHT22;38667;42.872;74.622;2023-10-31T12:05:27;10.60;94.60
52799;DHT22;38667;42.872;74.622;2023-10-31T12:07:53;10.60;93.30
52799;DHT22;38667;42.872;74.622;2023-10-31T12:10:23;10.60;93.20
52799;DHT22;38667;42.872;74.622;2023-10-31T12:12:50;10.60;92.80
52799;DHT22;38667;42.872;74.622;2023-10-31T12:15:16;10.60;93.00
52799;DHT22;38667;42.872;74.622;2023-10-31T12:17:44;10.50;91.50
52799;DHT22;38667;42.872;74.622;2023-10-31T12:20:11;10.50;91.20
52799;DHT22;38667;42.872;74.622;2023-10-31T12:22:37;10.50;91.50
52799;DHT22;38667;42.872;74.622;2023-10-31T12:25:05;10.50;91.80
52799;DHT22;38667;42.872;74.622;2023-10-31T12:27:44;10.50;92.30
52799;DHT22;38667;42.872;74.622;2023-10-31T12:30:12;10.50;91.20
52799;DHT22;38667;42.872;74.622;2023-10-31T12:32:39;10.50;91.70
52799;DHT22;38667;42.872;74.622;2023-10-31T12:35:08;10.50;91.40
52799;DHT22;38667;42.872;74.622;2023-10-31T12:37:36;10.50;91.30
52799;DHT22;38667;42.872;74.622;2023-10-31T12:40:04;10.50;91.40
52799;DHT22;38667;42.872;74.622;2023-10-31T12:42:31;10.40;92.00
52799;DHT22;38667;42.872;74.622;2023-10-31T12:44:58;10.50;92.50
52799;DHT22;38667;42.872;74.622;2023-10-31T12:47:25;10.50;92.80
52799;DHT22;38667;42.872;74.622;2023-10-31T12:52:50;10.40;91.20
52799;DHT22;38667;42.872;74.622;2023-10-31T12:55:18;10.40;92.40
52799;DHT22;38667;42.872;74.622;2023-10-31T12:57:44;10.40;92.50
52799;DHT22;38667;42.872;74.622;2023-10-31T13:00:12;10.40;92.90
52799;DHT22;38667;42.872;74.622;2023-10-31T13:02:39;10.40;92.50
52799;DHT22;38667;42.872;74.622;2023-10-31T13:05:10;10.50;92.10
52799;DHT22;38667;42.872;74.622;2023-10-31T13:07:36;10.50;92.40
52799;DHT22;38667;42.872;74.622;2023-10-31T13:10:04;10.50;92.60
52799;DHT22;38667;42.872;74.622;2023-10-31T13:12:31;10.60;92.10
52799;DHT22;38667;42.872;74.622;2023-10-31T13:14:57;10.50;91.00
52799;DHT22;38667;42.872;74.622;2023-10-31T13:17:23;10.50;90.80
52799;DHT22;38667;42.872;74.622;2023-10-31T13:19:50;10.50;90.50
52799;DHT22;38667;42.872;74.622;2023-10-31T13:22:16;10.50;90.30
52799;DHT22;38667;42.872;74.622;2023-10-31T13:24:42;10.50;90.70
52799;DHT22;38667;42.872;74.622;2023-10-31T13:27:10;10.60;90.10
52799;DHT22;38667;42.872;74.622;2023-10-31T13:29:36;10.60;90.30
52799;DHT22;38667;42.872;74.622;2023-10-31T13:32:03;10.60;89.60
52799;DHT22;38667;42.872;74.622;2023-10-31T13:34:29;10.60;89.50
52799;DHT22;38667;42.872;74.622;2023-10-31T13:36:55;10.60;89.80
52799;DHT22;38667;42.872;74.622;2023-10-31T13:39:21;10.70;90.00
52799;DHT22;38667;42.872;74.622;2023-10-31T13:41:48;10.70;88.40
52799;DHT22;38667;42.872;74.622;2023-10-31T13:44:15;10.80;87.70
52799;DHT22;38667;42.872;74.622;2023-10-31T13:46:42;10.80;87.80
52799;DHT22;38667;42.872;74.622;2023-10-31T13:49:08;10.80;88.40
52799;DHT22;38667;42.872;74.622;2023-10-31T13:51:34;10.80;87.60
52799;DHT22;38667;42.872;74.622;2023-10-31T13:54:01;10.80;87.40
52799;DHT22;38667;42.872;74.622;2023-10-31T13:56:27;10.80;87.10
52799;DHT22;38667;42.872;74.622;2023-10-31T13:58:53;10.90;87.20
52799;DHT22;38667;42.872;74.622;2023-10-31T14:01:21;10.90;88.00
52799;DHT22;38667;42.872;74.622;2023-10-31T14:03:47;11.00;88.90
52799;DHT22;38667;42.872;74.622;2023-10-31T14:06:14;10.90;90.00
52799;DHT22;38667;42.872;74.622;2023-10-31T14:08:40;11.00;90.50
52799;DHT22;38667;42.872;74.622;2023-10-31T14:11:06;11.00;91.00
52799;DHT22;38667;42.872;74.622;2023-10-31T14:13:32;11.00;91.10
52799;DHT22;38667;42.872;74.622;2023-10-31T14:15:59;11.10;90.60
52799;DHT22;38667;42.872;74.622;2023-10-31T14:18:26;11.10;89.30
52799;DHT22;38667;42.872;74.622;2023-10-31T14:20:53;11.20;88.10
52799;DHT22;38667;42.872;74.622;2023-10-31T14:23:19;11.20;87.40
52799;DHT22;38667;42.872;74.622;2023-10-31T14:25:45;11.30;87.20
52799;DHT22;38667;42.872;74.622;2023-10-31T14:28:11;11.30;86.60
52799;DHT22;38667;42.872;74.622;2023-10-31T14:30:38;11.30;86.30
52799;DHT22;38667;42.872;74.622;2023-10-31T14:33:04;11.40;85.00
52799;DHT22;38667;42.872;74.622;2023-10-31T14:35:32;11.40;83.90
52799;DHT22;38667;42.872;74.622;2023-10-31T14:37:58;11.50;83.30
52799;DHT22;38667;42.872;74.622;2023-10-31T14:40:24;11.50;82.80
52799;DHT22;38667;42.872;74.622;2023-10-31T14:42:51;11.50;82.60
52799;DHT22;38667;42.872;74.622;2023-10-31T14:45:17;11.60;81.50
52799;DHT22;38667;42.872;74.622;2023-10-31T14:47:43;11.50;81.50
52799;DHT22;38667;42.872;74.622;2023-10-31T14:50:10;11.60;81.40
52799;DHT22;38667;42.872;74.622;2023-10-31T14:52:38;11.60;81.10
52799;DHT22;38667;42.872;74.622;2023-10-31T14:55:05;11.60;81.30
52799;DHT22;38667;42.872;74.622;2023-10-31T14:57:31;11.60;81.30
52799;DHT22;38667;42.872;74.622;2023-10-31T14:59:57;11.50;82.10
52799;DHT22;38667;42.872;74.622;2023-10-31T15:02:24;11.50;82.10
52799;DHT22;38667;42.872;74.622;2023-10-31T15:04:50;11.50;82.40
52799;DHT22;38667;42.872;74.622;2023-10-31T15:07:16;11.50;82.50
52799;DHT22;38667;42.872;74.622;2023-10-31T15:09:44;11.40;83.10
52799;DHT22;38667;42.872;74.622;2023-10-31T15:12:10;11.40;83.60
52799;DHT22;38667;42.872;74.622;2023-10-31T15:14:37;11.40;83.80
52799;DHT22;38667;42.872;74.622;2023-10-31T15:17:03;11.40;85.30
52799;DHT22;38667;42.872;74.622;2023-10-31T15:19:29;11.50;85.00
52799;DHT22;38667;42.872;74.622;2023-10-31T15:21:56;11.50;85.00
52799;DHT22;38667;42.872;74.622;2023-10-31T15:24:22;11.50;84.60